Time;durP1;ratioP1;P1;durP2;ratioP2;P2;SDS_P1;SDS_P2;PMS_P1;PMS_P2;Temp;Humidity;BMP_temperature;BMP_pressure;BME280_temperature;BME280_humidity;BME280_pressure;Samples;Min_cycle;Max_cycle;Signal;HPM_P1;HPM_P2
2022/07/30 00:00:25;;;;;;;6.50;3.30;;;;;;;18.66;96.12;101700.63;5209601;28;19943;-74
2022/07/30 00:02:56;;;;;;;11.82;4.47;;;;;;;18.61;98.09;101705.63;5205219;28;20312;-74
2022/07/30 00:05:27;;;;;;;12.60;4.07;;;;;;;18.55;100.00;101706.25;5198127;28;20030;-74
2022/07/30 00:07:59;;;;;;;8.65;4.10;;;;;;;18.46;100.00;101706.22;5200950;28;20671;-74
2022/07/30 00:10:30;;;;;;;7.13;4.20;;;;;;;18.48;100.00;101695.44;5204712;28;20128;-75
2022/07/30 00:13:01;;;;;;;10.35;4.40;;;;;;;18.35;100.00;101695.91;5201805;28;20075;-74
2022/07/30 00:15:33;;;;;;;9.40;4.22;;;;;;;18.50;100.00;101690.00;5202194;28;20029;-74
2022/07/30 00:18:04;;;;;;;13.43;4.20;;;;;;;18.48;100.00;101684.81;5203544;28;20438;-74
2022/07/30 00:20:35;;;;;;;9.88;4.55;;;;;;;18.40;100.00;101690.94;5207104;28;20025;-76
2022/07/30 00:23:07;;;;;;;7.37;4.23;;;;;;;18.34;100.00;101688.94;5205844;28;20030;-74
2022/07/30 00:25:38;;;;;;;10.20;4.00;;;;;;;18.28;100.00;101691.41;5206759;28;20494;-74
2022/07/30 00:28:10;;;;;;;7.68;4.53;;;;;;;18.29;100.00;101688.56;5199501;28;20213;-74
2022/07/30 00:30:41;;;;;;;11.98;4.63;;;;;;;18.26;100.00;101688.06;5202672;28;20088;-75
2022/07/30 00:33:12;;;;;;;9.55;4.72;;;;;;;18.18;100.00;101696.81;5201994;28;20021;-73
2022/07/30 00:35:44;;;;;;;7.68;4.35;;;;;;;18.26;100.00;101702.19;5201206;28;20030;-74
2022/07/30 00:38:15;;;;;;;7.60;4.38;;;;;;;18.15;100.00;101705.94;5200841;28;20775;-75
2022/07/30 00:40:47;;;;;;;7.67;5.37;;;;;;;18.08;100.00;101704.91;5202286;28;20049;-74
2022/07/30 00:43:19;;;;;;;10.77;4.97;;;;;;;18.07;100.00;101705.03;5206775;28;20076;-74
2022/07/30 00:45:50;;;;;;;11.60;5.57;;;;;;;18.10;100.00;101702.91;5206081;28;20140;-75
2022/07/30 00:48:21;;;;;;;11.30;5.28;;;;;;;18.03;100.00;101701.88;5203013;28;20054;-74
2022/07/30 00:50:53;;;;;;;10.02;5.32;;;;;;;17.97;100.00;101697.22;5196332;28;20038;-74
2022/07/30 00:53:24;;;;;;;7.72;4.93;;;;;;;18.01;100.00;101703.06;5203977;28;20049;-74
2022/07/30 00:55:55;;;;;;;16.63;6.05;;;;;;;17.95;100.00;101694.72;5204088;28;20114;-74
2022/07/30 00:58:26;;;;;;;10.65;5.57;;;;;;;18.00;100.00;101696.91;5209337;28;20026;-74
2022/07/30 01:00:58;;;;;;;9.00;5.65;;;;;;;17.98;100.00;101694.41;5201629;28;20313;-74
2022/07/30 01:03:29;;;;;;;9.38;5.05;;;;;;;17.94;100.00;101692.25;5203995;28;20046;-74
2022/07/30 01:06:00;;;;;;;10.40;5.85;;;;;;;17.82;100.00;101693.50;5201932;28;20069;-74
2022/07/30 01:08:32;;;;;;;11.52;6.03;;;;;;;17.78;100.00;101689.50;5203199;28;20034;-74
2022/07/30 01:11:03;;;;;;;11.32;5.88;;;;;;;17.75;100.00;101683.50;5203842;28;20018;-75
2022/07/30 01:13:34;;;;;;;12.70;6.47;;;;;;;17.74;100.00;101681.00;5199936;28;20049;-73
2022/07/30 01:16:06;;;;;;;11.43;6.05;;;;;;;17.80;100.00;101685.69;5199914;28;21731;-74
2022/07/30 01:21:40;;;;;;;12.02;6.00;;;;;;;17.76;100.00;101687.00;5167761;28;20109;-75
2022/07/30 01:24:29;;;;;;;8.85;6.32;;;;;;;17.66;100.00;101684.44;5205792;28;20492;-74
2022/07/30 01:27:01;;;;;;;9.55;7.00;;;;;;;17.53;100.00;101681.34;5200415;28;20144;-73
2022/07/30 01:29:33;;;;;;;13.15;7.07;;;;;;;17.51;100.00;101668.25;5200347;28;20030;-75
2022/07/30 01:32:07;;;;;;;11.15;7.20;;;;;;;17.51;100.00;101691.28;5197603;28;20032;-74
2022/07/30 01:34:41;;;;;;;10.68;6.60;;;;;;;17.42;100.00;101679.78;5200929;28;20033;-74
2022/07/30 01:37:14;;;;;;;10.43;6.55;;;;;;;17.43;100.00;101685.94;5200538;28;20049;-74
2022/07/30 01:39:46;;;;;;;13.02;6.72;;;;;;;17.44;100.00;101682.28;5201564;28;20373;-74
2022/07/30 01:42:20;;;;;;;11.32;6.80;;;;;;;17.44;100.00;101684.94;5206621;28;20080;-74
2022/07/30 01:44:53;;;;;;;11.65;7.53;;;;;;;17.37;100.00;101683.88;5192736;28;20523;-74
2022/07/30 01:47:26;;;;;;;11.27;6.93;;;;;;;17.36;100.00;101682.22;5205152;28;20106;-74
2022/07/30 01:49:58;;;;;;;9.55;7.85;;;;;;;17.25;100.00;101676.19;5204904;28;20029;-74
2022/07/30 01:52:32;;;;;;;13.27;8.87;;;;;;;17.29;100.00;101689.94;5203419;28;20036;-73
2022/07/30 01:55:05;;;;;;;11.05;8.32;;;;;;;17.22;100.00;101694.19;5204764;28;20026;-74
2022/07/30 01:57:38;;;;;;;10.82;7.95;;;;;;;17.21;100.00;101680.13;5191683;28;20408;-74
2022/07/30 02:00:10;;;;;;;11.02;7.97;;;;;;;17.26;100.00;101696.38;5202807;28;20128;-75
2022/07/30 02:02:42;;;;;;;10.33;8.20;;;;;;;17.24;100.00;101690.41;5199243;28;20517;-74
2022/07/30 02:05:13;;;;;;;14.95;9.65;;;;;;;17.16;100.00;101682.41;5202626;28;20026;-74
2022/07/30 02:07:53;;;;;;;14.40;8.90;;;;;;;17.25;100.00;101689.44;5201769;28;20034;-73
2022/07/30 02:10:47;;;;;;;12.20;8.88;;;;;;;17.41;100.00;101690.53;5209828;28;20450;-73
2022/07/30 02:13:26;;;;;;;9.98;8.55;;;;;;;17.22;100.00;101695.03;5204700;28;20095;-74
2022/07/30 02:16:13;;;;;;;10.77;9.43;;;;;;;17.28;100.00;101693.59;5206602;28;20037;-74
2022/07/30 02:18:55;;;;;;;13.43;9.65;;;;;;;17.12;100.00;101693.44;5202237;28;20030;-73
2022/07/30 02:21:31;;;;;;;13.40;9.65;;;;;;;16.99;100.00;101696.47;5204734;28;20503;-73
2022/07/30 02:24:06;;;;;;;13.88;9.40;;;;;;;17.09;100.00;101701.72;5207184;28;20373;-74
2022/07/30 02:26:40;;;;;;;12.05;9.23;;;;;;;16.98;100.00;101700.94;5210249;28;20399;-73
2022/07/30 02:29:12;;;;;;;14.80;9.45;;;;;;;16.84;100.00;101687.41;5202968;28;20042;-73
2022/07/30 02:31:44;;;;;;;12.80;9.15;;;;;;;16.96;100.00;101691.47;5206466;28;20030;-73
2022/07/30 02:34:20;;;;;;;10.15;9.13;;;;;;;16.94;100.00;101690.81;5207397;28;20026;-74
2022/07/30 02:36:53;;;;;;;13.27;9.48;;;;;;;16.87;100.00;101695.03;5202921;28;20068;-73
2022/07/30 02:39:26;;;;;;;14.82;10.30;;;;;;;16.80;100.00;101702.75;5204173;28;20030;-73
2022/07/30 02:41:58;;;;;;;11.40;9.77;;;;;;;16.86;100.00;101701.28;5208590;28;20022;-73
2022/07/30 02:44:30;;;;;;;12.68;9.60;;;;;;;16.78;100.00;101704.69;5204750;28;20034;-73
2022/07/30 02:47:02;;;;;;;11.40;10.25;;;;;;;16.75;100.00;101697.91;5203005;28;20024;-74
2022/07/30 02:49:35;;;;;;;12.57;9.63;;;;;;;16.75;100.00;101702.38;5207443;28;20484;-74
2022/07/30 02:52:11;;;;;;;11.80;9.82;;;;;;;16.66;100.00;101701.41;5209121;28;20064;-73
2022/07/30 02:54:43;;;;;;;14.75;10.48;;;;;;;16.73;100.00;101712.22;5203670;28;20056;-74
2022/07/30 02:57:17;;;;;;;14.07;10.18;;;;;;;16.71;100.00;101709.75;5209709;28;20038;-74
2022/07/30 02:59:50;;;;;;;13.25;9.98;;;;;;;16.66;100.00;101709.34;5205494;28;20464;-73
2022/07/30 03:02:22;;;;;;;;;;;;;;;17.27;100.00;101706.00;5202499;28;20113;-74
2022/07/30 03:04:56;;;;;;;11.82;9.68;;;;;;;16.60;100.00;101709.94;5202218;28;20268;-73
2022/07/30 03:07:28;;;;;;;15.13;12.00;;;;;;;16.49;100.00;101707.50;5211555;28;20552;-74
2022/07/30 03:10:01;;;;;;;15.43;10.82;;;;;;;16.56;100.00;101710.41;5205361;28;20026;-73
2022/07/30 03:12:34;;;;;;;12.32;10.30;;;;;;;16.58;100.00;101708.41;5202514;28;20173;-73
2022/07/30 03:15:06;;;;;;;15.10;11.88;;;;;;;16.51;100.00;101718.75;5206457;28;20415;-73
2022/07/30 03:17:42;;;;;;;14.85;11.65;;;;;;;16.56;100.00;101713.88;5209119;28;20030;-74
2022/07/30 03:20:17;;;;;;;15.15;12.30;;;;;;;16.61;100.00;101713.41;5205287;28;20510;-74
2022/07/30 03:22:51;;;;;;;16.80;11.60;;;;;;;16.55;100.00;101714.81;5203052;28;20034;-74
2022/07/30 03:25:25;;;;;;;13.13;11.63;;;;;;;16.51;100.00;101708.16;5207800;28;20030;-74
2022/07/30 03:27:59;;;;;;;16.27;12.52;;;;;;;16.54;100.00;101711.34;5204448;28;20104;-73
2022/07/30 03:30:33;;;;;;;13.95;11.38;;;;;;;16.50;100.00;101704.69;5205518;28;20106;-74
2022/07/30 03:33:05;;;;;;;13.00;11.65;;;;;;;16.37;100.00;101704.22;5212975;28;20025;-74
2022/07/30 03:35:37;;;;;;;15.90;12.63;;;;;;;16.41;100.00;101707.41;5204018;28;20030;-73
2022/07/30 03:38:15;;;;;;;16.50;11.43;;;;;;;16.49;100.00;101710.16;5205968;28;20089;-73
2022/07/30 03:40:47;;;;;;;14.85;10.88;;;;;;;16.35;100.00;101703.53;5203933;28;20046;-73
2022/07/30 03:43:19;;;;;;;13.27;10.85;;;;;;;16.37;100.00;101701.59;5205842;28;20081;-73
2022/07/30 03:45:52;;;;;;;12.73;11.02;;;;;;;16.38;100.00;101708.53;5202330;28;20519;-73
2022/07/30 03:48:24;;;;;;;13.55;11.32;;;;;;;16.27;100.00;101716.66;5202040;28;20030;-73
2022/07/30 03:50:57;;;;;;;18.10;11.37;;;;;;;16.14;100.00;101711.72;5204113;28;20034;-74
2022/07/30 03:53:29;;;;;;;13.30;11.40;;;;;;;16.18;100.00;101713.06;5208418;28;20022;-73
2022/07/30 03:56:01;;;;;;;15.95;10.98;;;;;;;16.26;100.00;101721.09;5204377;28;20460;-73
2022/07/30 03:58:33;;;;;;;14.38;11.18;;;;;;;16.11;100.00;101722.56;5202141;28;20026;-74
2022/07/30 04:01:04;;;;;;;17.45;11.48;;;;;;;16.13;100.00;101728.53;5203290;28;20039;-73
2022/07/30 04:03:35;;;;;;;18.88;11.82;;;;;;;16.13;100.00;101725.06;5201087;28;20181;-73
2022/07/30 04:06:07;;;;;;;16.35;10.98;;;;;;;16.11;100.00;101727.84;5203470;28;20305;-73
2022/07/30 04:08:38;;;;;;;20.92;11.32;;;;;;;16.10;100.00;101730.63;5205751;28;20109;-73
2022/07/30 04:11:09;;;;;;;14.85;10.68;;;;;;;16.05;100.00;101723.13;5195927;28;20492;-73
2022/07/30 04:13:41;;;;;;;12.50;10.88;;;;;;;16.08;100.00;101735.25;5201843;28;20487;-74
2022/07/30 04:16:22;;;;;;;17.30;11.23;;;;;;;16.22;100.00;101745.34;5206043;28;20022;-74
2022/07/30 04:18:57;;;;;;;16.35;11.02;;;;;;;16.10;100.00;101747.34;5205941;28;20411;-73
2022/07/30 04:21:30;;;;;;;17.02;11.65;;;;;;;16.09;100.00;101744.81;5203449;28;20041;-73
2022/07/30 04:24:03;;;;;;;15.68;12.63;;;;;;;16.04;100.00;101734.69;5202496;28;20025;-73
2022/07/30 04:26:36;;;;;;;22.77;11.68;;;;;;;16.02;100.00;101747.19;5205550;28;20077;-73
2022/07/30 04:29:09;;;;;;;18.20;10.88;;;;;;;16.03;100.00;101746.25;5204240;28;20060;-73
2022/07/30 04:31:41;;;;;;;16.08;11.02;;;;;;;16.11;100.00;101748.16;5200405;28;20064;-73
2022/07/30 04:34:16;;;;;;;13.48;11.48;;;;;;;16.07;100.00;101750.25;5203368;28;20109;-73
2022/07/30 04:36:47;;;;;;;14.68;10.85;;;;;;;16.17;100.00;101747.56;5206419;28;20028;-73
2022/07/30 04:39:19;;;;;;;14.57;10.75;;;;;;;16.11;100.00;101753.47;5203865;28;20049;-73
2022/07/30 04:41:50;;;;;;;14.68;11.15;;;;;;;16.05;100.00;101749.56;5202453;28;20030;-73
2022/07/30 04:44:22;;;;;;;15.70;10.98;;;;;;;16.11;100.00;101756.94;5206530;28;20029;-73
2022/07/30 04:46:53;;;;;;;13.68;11.32;;;;;;;16.02;100.00;101771.84;5200633;28;20026;-73
2022/07/30 04:49:26;;;;;;;17.55;11.43;;;;;;;16.02;100.00;101766.56;5202116;28;20037;-73
2022/07/30 04:51:58;;;;;;;19.70;11.65;;;;;;;16.13;100.00;101768.19;5205278;28;20032;-73
2022/07/30 04:54:37;;;;;;;14.70;11.18;;;;;;;16.13;100.00;101764.72;5203985;28;20026;-73
2022/07/30 04:57:13;;;;;;;14.23;12.45;;;;;;;16.11;100.00;101771.97;5202721;28;20066;-73
2022/07/30 04:59:45;;;;;;;15.45;11.13;;;;;;;16.04;100.00;101775.16;5202504;28;20029;-75
2022/07/30 05:02:18;;;;;;;14.93;11.20;;;;;;;16.10;100.00;101775.56;5204165;28;20030;-73
2022/07/30 05:04:50;;;;;;;;;;;;;;;16.71;100.00;101783.84;5200705;28;20034;-73
2022/07/30 05:07:21;;;;;;;13.68;10.13;;;;;;;16.22;100.00;101782.38;5200927;28;19917;-73
2022/07/30 05:09:53;;;;;;;13.90;11.60;;;;;;;16.21;100.00;101778.03;5202094;28;20332;-73
2022/07/30 05:12:37;;;;;;;12.73;10.77;;;;;;;16.36;100.00;101778.41;5193338;28;20034;-73
2022/07/30 05:15:09;;;;;;;14.57;10.75;;;;;;;16.23;100.00;101773.44;5198613;28;20048;-71
2022/07/30 05:17:41;;;;;;;11.93;10.63;;;;;;;16.30;100.00;101772.72;5196931;28;20057;-73
2022/07/30 05:20:13;;;;;;;17.15;11.35;;;;;;;16.23;100.00;101761.06;5199285;28;20037;-73
2022/07/30 05:22:44;;;;;;;13.32;10.65;;;;;;;16.40;100.00;101770.06;5200818;28;20030;-73
2022/07/30 05:25:16;;;;;;;17.30;10.93;;;;;;;16.43;100.00;101774.19;5203990;28;20632;-73
2022/07/30 05:27:47;;;;;;;12.95;10.35;;;;;;;16.43;100.00;101775.03;5216099;23;20055;-70
2022/07/30 05:30:18;;;;;;;16.85;11.02;;;;;;;16.52;100.00;101773.34;5202367;28;20494;-70
2022/07/30 05:32:50;;;;;;;16.45;10.88;;;;;;;16.53;100.00;101782.94;5207394;28;20440;-72
2022/07/30 05:35:21;;;;;;;16.80;12.18;;;;;;;16.57;100.00;101789.59;5206330;28;20502;-70
2022/07/30 05:37:52;;;;;;;17.38;11.60;;;;;;;16.61;100.00;101785.69;5197733;28;20139;-71
2022/07/30 05:40:24;;;;;;;13.90;11.40;;;;;;;16.66;100.00;101788.72;5202368;28;20030;-70
2022/07/30 05:42:55;;;;;;;16.35;11.27;;;;;;;16.67;100.00;101790.41;5201607;28;20033;-71
2022/07/30 05:45:26;;;;;;;19.75;12.43;;;;;;;16.74;100.00;101794.16;5198789;28;20415;-70
2022/07/30 05:47:58;;;;;;;14.80;11.65;;;;;;;16.81;100.00;101796.19;5199033;28;20096;-69
2022/07/30 05:50:29;;;;;;;14.50;10.55;;;;;;;16.84;100.00;101798.56;5199345;28;20037;-69
2022/07/30 05:53:00;;;;;;;17.98;12.35;;;;;;;16.96;100.00;101789.41;5201746;28;20495;-71
2022/07/30 05:55:32;;;;;;;15.40;11.43;;;;;;;16.97;100.00;101797.22;5197768;28;20037;-70
2022/07/30 05:58:03;;;;;;;15.07;12.60;;;;;;;17.00;100.00;101793.44;5198367;28;20533;-69
2022/07/30 06:00:34;;;;;;;18.73;11.73;;;;;;;17.11;100.00;101789.75;5199665;28;20032;-70
2022/07/30 06:03:06;;;;;;;14.50;11.98;;;;;;;17.14;100.00;101790.28;5189789;28;20026;-71
2022/07/30 06:05:37;;;;;;;18.65;11.93;;;;;;;17.18;100.00;101781.06;5200036;28;20041;-69
2022/07/30 06:08:09;;;;;;;14.60;11.68;;;;;;;17.34;100.00;101808.69;5202246;28;20390;-69
2022/07/30 06:10:40;;;;;;;16.95;11.50;;;;;;;17.36;100.00;101804.06;5200547;28;20038;-69
2022/07/30 06:13:11;;;;;;;17.30;11.63;;;;;;;17.46;100.00;101804.81;5201009;28;20060;-70
2022/07/30 06:15:42;;;;;;;13.93;11.55;;;;;;;17.54;100.00;101810.22;5200250;28;20128;-69
2022/07/30 06:18:14;;;;;;;11.73;10.38;;;;;;;17.65;100.00;101812.63;5202182;28;20053;-69
2022/07/30 06:20:45;;;;;;;14.68;12.18;;;;;;;17.68;100.00;101809.66;5202964;28;20084;-71
2022/07/30 06:23:16;;;;;;;12.40;11.05;;;;;;;17.81;100.00;101811.13;5200881;28;20041;-67
2022/07/30 06:25:49;;;;;;;12.20;9.93;;;;;;;17.92;100.00;101808.22;5201080;28;20470;-68
2022/07/30 06:28:20;;;;;;;14.73;10.48;;;;;;;17.92;100.00;101810.88;5199679;28;20049;-69
2022/07/30 06:30:51;;;;;;;11.00;9.00;;;;;;;17.99;100.00;101815.41;5197461;28;20036;-70
2022/07/30 06:33:22;;;;;;;14.30;9.43;;;;;;;18.18;100.00;101819.69;5202822;28;20482;-66
2022/07/30 06:35:54;;;;;;;9.63;8.68;;;;;;;18.20;100.00;101814.22;5203018;28;20769;-67
2022/07/30 06:38:25;;;;;;;11.75;9.45;;;;;;;18.30;100.00;101820.25;5201497;28;20476;-68
2022/07/30 06:40:57;;;;;;;14.50;8.77;;;;;;;18.39;100.00;101813.97;5201231;28;20381;-66
2022/07/30 06:43:28;;;;;;;10.80;8.18;;;;;;;18.58;100.00;101820.06;5198028;28;20029;-67
2022/07/30 06:45:59;;;;;;;10.73;8.45;;;;;;;18.67;100.00;101819.91;5204751;28;20030;-67
2022/07/30 06:48:31;;;;;;;14.20;8.15;;;;;;;18.96;100.00;101816.09;5195763;28;20030;-67
2022/07/30 06:51:02;;;;;;;9.85;6.78;;;;;;;19.00;100.00;101814.75;5191068;28;20030;-69
2022/07/30 06:53:34;;;;;;;9.00;7.05;;;;;;;19.00;100.00;101821.91;5201315;28;20394;-66
2022/07/30 06:56:05;;;;;;;13.68;6.68;;;;;;;19.21;100.00;101819.66;5206831;28;20066;-66
2022/07/30 06:58:37;;;;;;;7.50;6.43;;;;;;;19.24;100.00;101819.28;5202768;28;20029;-66
2022/07/30 07:01:08;;;;;;;10.18;6.00;;;;;;;19.42;100.00;101822.66;5202919;28;20085;-67
2022/07/30 07:03:39;;;;;;;8.33;5.93;;;;;;;19.40;100.00;101823.81;5201917;28;20128;-70
2022/07/30 07:06:11;;;;;;;12.20;5.93;;;;;;;19.53;100.00;101837.44;5205403;28;20109;-68
2022/07/30 07:08:42;;;;;;;8.67;5.33;;;;;;;19.53;100.00;101826.81;5205066;28;20442;-68
2022/07/30 07:11:13;;;;;;;8.53;5.40;;;;;;;19.55;100.00;101832.81;5201704;28;20372;-68
2022/07/30 07:13:45;;;;;;;6.07;4.20;;;;;;;19.72;100.00;101825.69;5207242;28;20383;-69
2022/07/30 07:16:20;;;;;;;8.80;3.87;;;;;;;19.83;100.00;101835.16;5206103;28;20053;-69
2022/07/30 07:18:52;;;;;;;7.40;3.72;;;;;;;19.96;100.00;101835.47;5198065;28;20022;-67
2022/07/30 07:21:24;;;;;;;7.80;3.83;;;;;;;20.06;100.00;101828.16;5199867;28;20395;-68
2022/07/30 07:23:55;;;;;;;5.93;3.77;;;;;;;20.13;100.00;101831.81;5206011;28;20035;-67
2022/07/30 07:26:27;;;;;;;4.77;2.93;;;;;;;20.22;100.00;101829.13;5203117;28;20761;-68
2022/07/30 07:28:59;;;;;;;5.17;2.90;;;;;;;20.22;100.00;101821.97;5201473;28;20046;-71
2022/07/30 07:31:30;;;;;;;6.57;2.67;;;;;;;20.45;100.00;101838.06;5200917;28;20336;-71
2022/07/30 07:34:02;;;;;;;6.57;2.63;;;;;;;20.48;100.00;101840.38;5202705;28;21085;-68
2022/07/30 07:36:35;;;;;;;5.60;2.67;;;;;;;20.57;100.00;101834.06;5203538;28;20132;-71
2022/07/30 07:39:08;;;;;;;;;;;;;;;21.18;100.00;101839.63;5202281;28;20085;-68
2022/07/30 07:41:39;;;;;;;4.35;2.60;;;;;;;20.58;100.00;101825.06;5208142;28;20560;-68
2022/07/30 07:44:11;;;;;;;5.03;2.33;;;;;;;20.82;100.00;101836.63;5203879;28;20023;-68
2022/07/30 07:46:42;;;;;;;5.87;3.20;;;;;;;20.89;100.00;101827.75;5202848;28;20034;-68
2022/07/30 07:49:13;;;;;;;6.37;2.47;;;;;;;21.00;100.00;101829.22;5204256;28;20018;-67
2022/07/30 07:51:45;;;;;;;6.97;2.80;;;;;;;21.05;100.00;101834.84;5204258;28;20022;-69
2022/07/30 07:54:16;;;;;;;11.80;2.90;;;;;;;21.19;100.00;101835.94;5200831;28;20660;-67
2022/07/30 07:56:47;;;;;;;4.17;2.27;;;;;;;21.30;100.00;101824.06;5205698;28;20053;-68
2022/07/30 07:59:19;;;;;;;5.73;2.63;;;;;;;21.33;100.00;101835.22;5202986;28;20096;-68
2022/07/30 08:01:50;;;;;;;5.43;2.87;;;;;;;21.45;100.00;101834.81;5207206;28;20028;-68
2022/07/30 08:04:21;;;;;;;8.03;2.80;;;;;;;21.37;100.00;101827.69;5205859;28;20034;-68
2022/07/30 08:06:52;;;;;;;10.73;3.30;;;;;;;21.43;100.00;101834.97;5202802;28;20062;-68
2022/07/30 08:09:23;;;;;;;7.53;2.73;;;;;;;21.75;100.00;101838.41;5207072;28;20026;-68
2022/07/30 08:11:55;;;;;;;4.80;2.40;;;;;;;21.81;100.00;101829.69;5202339;28;20044;-68
2022/07/30 08:14:26;;;;;;;7.10;2.30;;;;;;;21.84;100.00;101830.16;5203355;28;20026;-67
2022/07/30 08:16:58;;;;;;;6.67;2.10;;;;;;;21.99;98.06;101826.69;5197929;28;20026;-67
2022/07/30 08:19:29;;;;;;;5.90;2.10;;;;;;;21.92;96.48;101825.75;5204762;28;20019;-70
2022/07/30 08:22:00;;;;;;;4.73;2.03;;;;;;;22.00;92.18;101825.66;5210167;28;20034;-66
2022/07/30 08:24:31;;;;;;;3.83;1.97;;;;;;;22.13;95.63;101830.41;5203591;28;20030;-67
2022/07/30 08:27:03;;;;;;;4.90;2.20;;;;;;;22.34;97.73;101817.16;5201649;28;20061;-68
2022/07/30 08:29:35;;;;;;;4.57;2.27;;;;;;;22.28;89.28;101828.59;5206487;28;20025;-70
2022/07/30 08:32:06;;;;;;;5.03;2.13;;;;;;;22.33;89.32;101834.22;5206021;28;20033;-69
2022/07/30 08:34:37;;;;;;;3.57;1.80;;;;;;;22.38;88.71;101834.47;5203170;28;20088;-68
2022/07/30 08:37:09;;;;;;;4.87;1.60;;;;;;;22.66;89.31;101832.00;5208334;28;20075;-68
2022/07/30 08:39:41;;;;;;;4.67;2.07;;;;;;;22.74;87.72;101826.56;5200571;28;20045;-70
2022/07/30 08:42:13;;;;;;;5.05;2.08;;;;;;;22.90;83.88;101822.00;5213047;28;20030;-70
2022/07/30 08:44:45;;;;;;;5.95;1.85;;;;;;;22.93;84.48;101821.66;5200341;28;20034;-69
2022/07/30 08:47:17;;;;;;;4.40;2.00;;;;;;;22.92;84.27;101825.34;5201266;28;20041;-69
2022/07/30 08:49:49;;;;;;;3.40;2.22;;;;;;;23.10;85.06;101822.25;5206432;28;20109;-70
2022/07/30 08:52:21;;;;;;;6.27;2.37;;;;;;;23.35;83.92;101825.41;5198686;28;20467;-70
2022/07/30 08:54:53;;;;;;;5.17;2.20;;;;;;;23.37;80.72;101824.19;5206212;28;20109;-70
2022/07/30 08:57:24;;;;;;;5.25;2.28;;;;;;;23.34;78.57;101827.25;5206608;28;20474;-69
2022/07/30 08:59:57;;;;;;;4.17;2.13;;;;;;;23.64;77.90;101827.09;5203854;28;20033;-70
2022/07/30 09:02:30;;;;;;;4.07;1.77;;;;;;;23.66;76.71;101825.94;5197923;28;20133;-70
2022/07/30 09:05:02;;;;;;;4.20;2.10;;;;;;;23.80;76.00;101818.84;5203049;28;20076;-69
2022/07/30 09:07:35;;;;;;;4.38;2.10;;;;;;;23.64;76.21;101816.41;5200768;28;20118;-69
2022/07/30 09:10:08;;;;;;;6.07;2.50;;;;;;;23.78;76.06;101815.53;5197408;28;20034;-68
2022/07/30 09:12:43;;;;;;;4.97;1.73;;;;;;;23.96;77.57;101826.56;5202721;28;20034;-68
2022/07/30 09:15:19;;;;;;;6.57;2.30;;;;;;;24.11;76.09;101826.47;5203262;28;20071;-69
2022/07/30 09:17:55;;;;;;;5.70;2.20;;;;;;;24.15;74.00;101830.41;5200900;28;20034;-69
2022/07/30 09:20:29;;;;;;;7.03;2.42;;;;;;;24.39;74.06;101833.69;5197741;28;20483;-69
2022/07/30 09:23:04;;;;;;;6.38;2.08;;;;;;;24.50;73.38;101841.97;5205695;28;20058;-68
2022/07/30 09:25:41;;;;;;;6.10;1.90;;;;;;;24.51;73.32;101843.66;5201677;28;20027;-69
2022/07/30 09:28:12;;;;;;;5.22;1.80;;;;;;;24.56;69.02;101850.28;5218463;28;20046;-71
2022/07/30 09:30:52;;;;;;;3.20;1.83;;;;;;;24.76;71.20;101857.38;5204884;28;20382;-70
2022/07/30 09:33:41;;;;;;;6.40;2.20;;;;;;;24.96;71.11;101857.47;5206056;28;20026;-69
2022/07/30 09:36:14;;;;;;;3.70;1.63;;;;;;;24.85;68.66;101855.38;5201936;28;20041;-70
2022/07/30 09:38:50;;;;;;;5.15;1.77;;;;;;;24.78;67.52;101854.50;5205357;28;20723;-68
2022/07/30 09:41:36;;;;;;;4.45;1.70;;;;;;;25.22;68.98;101842.50;5202539;28;20113;-68
2022/07/30 09:44:07;;;;;;;3.35;1.50;;;;;;;25.14;68.08;101838.16;5201270;28;20476;-68
2022/07/30 09:46:49;;;;;;;3.97;1.60;;;;;;;25.29;66.52;101845.19;5203423;28;20032;-69
2022/07/30 09:49:25;;;;;;;5.63;1.70;;;;;;;25.41;66.19;101852.44;5195372;28;20389;-69
2022/07/30 09:51:57;;;;;;;3.20;1.40;;;;;;;25.52;64.06;101834.91;5200370;28;20469;-69
2022/07/30 09:54:49;;;;;;;4.93;1.70;;;;;;;25.99;63.30;101830.41;5203408;28;20029;-69
2022/07/30 09:57:21;;;;;;;5.32;1.80;;;;;;;25.84;59.85;101827.13;5198380;28;20042;-69
2022/07/30 09:59:52;;;;;;;3.50;1.53;;;;;;;25.84;59.46;101832.50;5202042;28;20498;-71
2022/07/30 10:02:30;;;;;;;3.53;1.50;;;;;;;26.02;60.66;101829.97;5201852;28;20030;-70
2022/07/30 10:05:13;;;;;;;2.92;1.65;;;;;;;26.06;61.22;101822.31;5198072;28;20491;-70
2022/07/30 10:07:53;;;;;;;4.15;1.40;;;;;;;26.00;60.45;101823.19;5194419;28;20109;-71
2022/07/30 10:10:27;;;;;;;4.55;1.50;;;;;;;26.10;59.62;101827.09;5205839;28;20028;-68
2022/07/30 10:13:00;;;;;;;4.72;1.60;;;;;;;25.96;57.47;101823.59;5200672;28;20494;-69
2022/07/30 10:15:34;;;;;;;3.53;1.40;;;;;;;26.07;55.52;101824.00;5199545;28;20050;-69
2022/07/30 10:18:05;;;;;;;3.35;1.20;;;;;;;26.00;54.54;101820.50;5195841;28;20026;-69
2022/07/30 10:20:37;;;;;;;6.37;1.40;;;;;;;26.20;51.27;101818.59;5204543;28;20030;-71
2022/07/30 10:23:09;;;;;;;4.37;1.40;;;;;;;26.34;51.36;101822.91;5196029;28;20480;-68
2022/07/30 10:25:42;;;;;;;3.05;1.38;;;;;;;26.12;47.24;101819.63;5197683;28;20030;-70
2022/07/30 10:28:14;;;;;;;2.70;1.20;;;;;;;26.52;48.23;101818.72;5202725;28;20133;-69
2022/07/30 10:30:49;;;;;;;4.88;1.48;;;;;;;26.44;47.37;101819.75;5207080;28;20032;-69
2022/07/30 10:33:22;;;;;;;4.65;1.63;;;;;;;26.55;47.58;101813.75;5202272;28;20014;-71
2022/07/30 10:35:54;;;;;;;3.35;1.52;;;;;;;26.78;48.00;101824.00;5209360;28;20145;-69
2022/07/30 10:38:37;;;;;;;3.45;1.13;;;;;;;27.19;48.32;101814.69;5205076;28;20026;-68
2022/07/30 10:41:23;;;;;;;2.35;1.10;;;;;;;27.12;46.17;101814.75;5204864;28;20026;-68
2022/07/30 10:44:11;;;;;;;3.67;1.58;;;;;;;27.15;46.37;101819.69;5199940;28;20497;-70
2022/07/30 10:47:00;;;;;;;4.10;1.42;;;;;;;27.49;46.77;101822.97;5199231;28;20084;-68
2022/07/30 10:49:32;;;;;;;3.95;1.20;;;;;;;27.21;45.00;101812.63;5204654;28;20041;-68
2022/07/30 10:52:03;;;;;;;2.97;1.53;;;;;;;27.42;46.47;101822.19;5204356;28;20399;-71
2022/07/30 10:54:43;;;;;;;4.47;1.47;;;;;;;27.36;45.64;101821.22;5206139;28;20030;-68
2022/07/30 10:57:20;;;;;;;5.03;1.48;;;;;;;27.38;43.76;101815.59;5213490;28;20038;-69
2022/07/30 10:59:51;;;;;;;6.80;1.52;;;;;;;27.59;44.33;101817.94;5201704;28;20878;-70
2022/07/30 11:02:27;;;;;;;7.23;1.57;;;;;;;27.71;43.70;101812.66;5206004;28;20037;-68
2022/07/30 11:05:17;;;;;;;5.78;1.65;;;;;;;27.82;45.25;101806.56;5204659;28;20026;-68
2022/07/30 11:07:48;;;;;;;5.40;1.30;;;;;;;27.56;44.67;101806.78;5203484;28;20372;-68
2022/07/30 11:10:40;;;;;;;4.13;1.10;;;;;;;27.95;43.77;101813.69;5204278;28;20092;-68
2022/07/30 11:13:11;;;;;;;4.65;1.45;;;;;;;27.81;42.05;101813.03;5207128;28;20061;-68
2022/07/30 11:16:00;;;;;;;2.80;1.10;;;;;;;28.18;41.31;101817.63;5209219;28;20427;-71
2022/07/30 11:19:23;;;;;;;5.47;1.30;;;;;;;28.20;43.45;101812.84;5206222;28;20494;-72
2022/07/30 11:22:25;;;;;;;2.90;1.50;;;;;;;28.37;43.05;101805.81;5202354;28;20085;-69
2022/07/30 11:24:57;;;;;;;5.15;1.92;;;;;;;28.24;41.87;101809.47;5211080;28;20045;-68
2022/07/30 11:27:45;;;;;;;6.13;1.50;;;;;;;28.43;42.20;101806.81;5225827;23;20054;-75
2022/07/30 11:30:20;;;;;;;3.72;1.45;;;;;;;28.22;42.68;101802.66;5208405;28;20100;-72
2022/07/30 11:32:53;;;;;;;6.05;1.30;;;;;;;28.30;40.62;101795.09;5210720;28;20466;-72
2022/07/30 11:35:26;;;;;;;4.78;1.60;;;;;;;28.28;40.52;101801.75;5213294;28;20038;-73
2022/07/30 11:38:08;;;;;;;3.40;1.50;;;;;;;28.57;41.68;101797.50;5227037;28;20030;-72
2022/07/30 11:40:46;;;;;;;23.73;3.25;;;;;;;28.65;40.34;101801.78;5203387;28;20030;-75
2022/07/30 11:43:24;;;;;;;4.57;1.38;;;;;;;28.66;40.56;101795.31;5204208;28;20042;-74
2022/07/30 11:46:05;;;;;;;5.40;1.40;;;;;;;28.78;41.23;101794.31;5204800;28;20128;-74